sensor_id;sensor_type;location;lat;lon;timestamp;P1;durP1;ratioP1;P2;durP2;ratioP2
19127;SDS011;9696;53.686;10.094;2023-04-03T00:01:44;2.83;;;1.53;;
19127;SDS011;9696;53.686;10.094;2023-04-03T00:04:14;9.17;;;2.00;;
19127;SDS011;9696;53.686;10.094;2023-04-03T00:06:43;4.83;;;1.83;;
19127;SDS011;9696;53.686;10.094;2023-04-03T00:09:12;7.80;;;1.83;;
19127;SDS011;9696;53.686;10.094;2023-04-03T00:11:41;8.33;;;1.83;;
19127;SDS011;9696;53.686;10.094;2023-04-03T00:14:10;5.03;;;1.23;;
19127;SDS011;9696;53.686;10.094;2023-04-03T00:16:39;7.43;;;1.67;;
19127;SDS011;9696;53.686;10.094;2023-04-03T00:19:09;4.70;;;1.77;;
19127;SDS011;9696;53.686;10.094;2023-04-03T00:21:40;1.73;;;1.47;;
19127;SDS011;9696;53.686;10.094;2023-04-03T00:24:09;4.40;;;1.50;;
19127;SDS011;9696;53.686;10.094;2023-04-03T00:26:38;2.10;;;1.50;;
19127;SDS011;9696;53.686;10.094;2023-04-03T00:29:08;4.67;;;1.43;;
19127;SDS011;9696;53.686;10.094;2023-04-03T00:31:37;2.13;;;1.40;;
19127;SDS011;9696;53.686;10.094;2023-04-03T00:34:06;2.93;;;1.57;;
19127;SDS011;9696;53.686;10.094;2023-04-03T00:36:36;7.50;;;1.80;;
19127;SDS011;9696;53.686;10.094;2023-04-03T00:39:07;13.73;;;2.10;;
19127;SDS011;9696;53.686;10.094;2023-04-03T00:41:37;2.33;;;1.40;;
19127;SDS011;9696;53.686;10.094;2023-04-03T00:44:22;4.40;;;1.47;;
19127;SDS011;9696;53.686;10.094;2023-04-03T00:47:07;8.17;;;1.33;;
19127;SDS011;9696;53.686;10.094;2023-04-03T00:49:39;3.40;;;1.57;;
19127;SDS011;9696;53.686;10.094;2023-04-03T00:52:10;3.27;;;1.60;;
19127;SDS011;9696;53.686;10.094;2023-04-03T00:54:44;5.67;;;2.03;;
19127;SDS011;9696;53.686;10.094;2023-04-03T00:57:17;6.67;;;1.47;;
19127;SDS011;9696;53.686;10.094;2023-04-03T00:59:48;7.50;;;1.73;;
19127;SDS011;9696;53.686;10.094;2023-04-03T01:02:19;7.27;;;1.40;;
19127;SDS011;9696;53.686;10.094;2023-04-03T01:04:50;8.93;;;2.43;;
19127;SDS011;9696;53.686;10.094;2023-04-03T01:07:20;4.10;;;1.07;;
19127;SDS011;9696;53.686;10.094;2023-04-03T01:09:53;4.10;;;2.20;;
19127;SDS011;9696;53.686;10.094;2023-04-03T01:12:26;1.53;;;1.00;;
19127;SDS011;9696;53.686;10.094;2023-04-03T01:14:58;1.90;;;0.93;;
19127;SDS011;9696;53.686;10.094;2023-04-03T01:17:31;1.77;;;1.40;;
19127;SDS011;9696;53.686;10.094;2023-04-03T01:20:15;4.63;;;1.20;;
19127;SDS011;9696;53.686;10.094;2023-04-03T01:23:12;1.83;;;1.10;;
19127;SDS011;9696;53.686;10.094;2023-04-03T01:25:59;3.90;;;1.10;;
19127;SDS011;9696;53.686;10.094;2023-04-03T01:28:30;5.97;;;1.67;;
19127;SDS011;9696;53.686;10.094;2023-04-03T01:31:06;3.87;;;1.27;;
19127;SDS011;9696;53.686;10.094;2023-04-03T01:33:46;4.23;;;1.40;;
19127;SDS011;9696;53.686;10.094;2023-04-03T01:36:19;8.73;;;1.50;;
19127;SDS011;9696;53.686;10.094;2023-04-03T01:38:51;5.07;;;1.57;;
19127;SDS011;9696;53.686;10.094;2023-04-03T01:41:21;3.30;;;1.37;;
19127;SDS011;9696;53.686;10.094;2023-04-03T01:43:53;3.63;;;1.03;;
19127;SDS011;9696;53.686;10.094;2023-04-03T01:46:22;2.27;;;1.27;;
19127;SDS011;9696;53.686;10.094;2023-04-03T01:48:53;2.00;;;1.70;;
19127;SDS011;9696;53.686;10.094;2023-04-03T01:51:22;1.53;;;1.13;;
19127;SDS011;9696;53.686;10.094;2023-04-03T01:53:51;4.20;;;0.87;;
19127;SDS011;9696;53.686;10.094;2023-04-03T01:56:20;3.07;;;1.00;;
19127;SDS011;9696;53.686;10.094;2023-04-03T01:58:50;8.63;;;1.23;;
19127;SDS011;9696;53.686;10.094;2023-04-03T02:01:19;2.77;;;1.23;;
19127;SDS011;9696;53.686;10.094;2023-04-03T02:03:48;2.00;;;1.10;;
19127;SDS011;9696;53.686;10.094;2023-04-03T02:06:19;3.70;;;1.30;;
19127;SDS011;9696;53.686;10.094;2023-04-03T02:08:48;5.37;;;1.20;;
19127;SDS011;9696;53.686;10.094;2023-04-03T02:11:17;6.80;;;1.60;;
19127;SDS011;9696;53.686;10.094;2023-04-03T02:13:46;2.50;;;1.30;;
19127;SDS011;9696;53.686;10.094;2023-04-03T02:16:16;3.93;;;1.47;;
19127;SDS011;9696;53.686;10.094;2023-04-03T02:18:45;5.57;;;1.07;;
19127;SDS011;9696;53.686;10.094;2023-04-03T02:21:14;11.83;;;1.70;;
19127;SDS011;9696;53.686;10.094;2023-04-03T02:23:44;1.67;;;1.10;;
19127;SDS011;9696;53.686;10.094;2023-04-03T02:26:14;6.60;;;1.27;;
19127;SDS011;9696;53.686;10.094;2023-04-03T02:28:45;3.70;;;1.20;;
19127;SDS011;9696;53.686;10.094;2023-04-03T02:31:16;2.50;;;1.13;;
19127;SDS011;9696;53.686;10.094;2023-04-03T02:33:46;2.37;;;1.37;;
19127;SDS011;9696;53.686;10.094;2023-04-03T02:36:16;2.03;;;0.97;;
19127;SDS011;9696;53.686;10.094;2023-04-03T02:38:52;2.47;;;1.47;;
19127;SDS011;9696;53.686;10.094;2023-04-03T02:41:21;1.97;;;1.37;;
19127;SDS011;9696;53.686;10.094;2023-04-03T02:43:53;8.67;;;2.13;;
19127;SDS011;9696;53.686;10.094;2023-04-03T02:46:22;6.10;;;1.30;;
19127;SDS011;9696;53.686;10.094;2023-04-03T02:48:51;1.53;;;0.97;;
19127;SDS011;9696;53.686;10.094;2023-04-03T02:51:20;8.30;;;1.93;;
19127;SDS011;9696;53.686;10.094;2023-04-03T02:53:52;8.20;;;1.60;;
19127;SDS011;9696;53.686;10.094;2023-04-03T02:56:26;3.00;;;1.40;;
19127;SDS011;9696;53.686;10.094;2023-04-03T02:58:55;4.27;;;1.40;;
19127;SDS011;9696;53.686;10.094;2023-04-03T03:01:25;2.93;;;1.30;;
19127;SDS011;9696;53.686;10.094;2023-04-03T03:03:58;5.57;;;2.10;;
19127;SDS011;9696;53.686;10.094;2023-04-03T03:06:27;8.20;;;1.87;;
19127;SDS011;9696;53.686;10.094;2023-04-03T03:08:57;3.47;;;1.47;;
19127;SDS011;9696;53.686;10.094;2023-04-03T03:11:27;4.60;;;1.67;;
19127;SDS011;9696;53.686;10.094;2023-04-03T03:13:56;3.53;;;1.37;;
19127;SDS011;9696;53.686;10.094;2023-04-03T03:16:25;4.40;;;1.63;;
19127;SDS011;9696;53.686;10.094;2023-04-03T03:18:56;3.20;;;1.53;;
19127;SDS011;9696;53.686;10.094;2023-04-03T03:21:25;4.63;;;1.27;;
19127;SDS011;9696;53.686;10.094;2023-04-03T03:23:55;9.03;;;1.30;;
19127;SDS011;9696;53.686;10.094;2023-04-03T03:26:26;3.23;;;1.73;;
19127;SDS011;9696;53.686;10.094;2023-04-03T03:28:55;3.60;;;1.87;;
19127;SDS011;9696;53.686;10.094;2023-04-03T03:31:25;4.37;;;1.53;;
19127;SDS011;9696;53.686;10.094;2023-04-03T03:33:55;4.07;;;1.27;;
19127;SDS011;9696;53.686;10.094;2023-04-03T03:36:24;1.87;;;1.10;;
19127;SDS011;9696;53.686;10.094;2023-04-03T03:38:53;6.27;;;2.77;;
19127;SDS011;9696;53.686;10.094;2023-04-03T03:41:24;3.73;;;2.03;;
19127;SDS011;9696;53.686;10.094;2023-04-03T03:43:53;5.33;;;1.20;;
19127;SDS011;9696;53.686;10.094;2023-04-03T03:46:23;6.10;;;1.33;;
19127;SDS011;9696;53.686;10.094;2023-04-03T03:48:53;8.40;;;1.97;;
19127;SDS011;9696;53.686;10.094;2023-04-03T03:51:22;2.47;;;1.33;;
19127;SDS011;9696;53.686;10.094;2023-04-03T03:53:52;5.27;;;1.50;;
19127;SDS011;9696;53.686;10.094;2023-04-03T03:56:22;8.80;;;1.90;;
19127;SDS011;9696;53.686;10.094;2023-04-03T03:58:53;5.40;;;1.90;;
19127;SDS011;9696;53.686;10.094;2023-04-03T04:01:23;4.30;;;1.60;;
19127;SDS011;9696;53.686;10.094;2023-04-03T04:03:52;4.30;;;1.20;;
19127;SDS011;9696;53.686;10.094;2023-04-03T04:06:26;5.07;;;1.43;;
19127;SDS011;9696;53.686;10.094;2023-04-03T04:08:58;6.17;;;2.00;;
19127;SDS011;9696;53.686;10.094;2023-04-03T04:11:30;9.77;;;2.00;;
19127;SDS011;9696;53.686;10.094;2023-04-03T04:14:00;5.33;;;1.50;;
19127;SDS011;9696;53.686;10.094;2023-04-03T04:16:30;3.07;;;1.60;;
19127;SDS011;9696;53.686;10.094;2023-04-03T04:19:04;2.63;;;1.27;;
19127;SDS011;9696;53.686;10.094;2023-04-03T04:21:36;2.53;;;1.43;;
19127;SDS011;9696;53.686;10.094;2023-04-03T04:24:06;2.17;;;1.10;;
19127;SDS011;9696;53.686;10.094;2023-04-03T04:26:38;11.93;;;2.17;;
19127;SDS011;9696;53.686;10.094;2023-04-03T04:29:10;5.67;;;1.53;;
19127;SDS011;9696;53.686;10.094;2023-04-03T04:31:39;7.53;;;1.63;;
19127;SDS011;9696;53.686;10.094;2023-04-03T04:34:08;11.87;;;1.70;;
19127;SDS011;9696;53.686;10.094;2023-04-03T04:36:39;7.30;;;1.63;;
19127;SDS011;9696;53.686;10.094;2023-04-03T04:39:09;5.27;;;1.57;;
19127;SDS011;9696;53.686;10.094;2023-04-03T04:41:40;2.30;;;1.47;;
19127;SDS011;9696;53.686;10.094;2023-04-03T04:44:10;1.53;;;1.00;;
19127;SDS011;9696;53.686;10.094;2023-04-03T04:46:39;6.20;;;1.33;;
19127;SDS011;9696;53.686;10.094;2023-04-03T04:49:09;3.07;;;1.90;;
19127;SDS011;9696;53.686;10.094;2023-04-03T04:51:38;6.20;;;1.90;;
19127;SDS011;9696;53.686;10.094;2023-04-03T04:54:20;3.20;;;1.47;;
19127;SDS011;9696;53.686;10.094;2023-04-03T04:56:51;3.27;;;1.47;;
19127;SDS011;9696;53.686;10.094;2023-04-03T04:59:21;11.40;;;2.30;;
19127;SDS011;9696;53.686;10.094;2023-04-03T05:01:52;5.57;;;2.30;;
19127;SDS011;9696;53.686;10.094;2023-04-03T05:04:22;9.00;;;2.43;;
19127;SDS011;9696;53.686;10.094;2023-04-03T05:06:56;7.03;;;1.97;;
19127;SDS011;9696;53.686;10.094;2023-04-03T05:09:28;8.80;;;1.60;;
19127;SDS011;9696;53.686;10.094;2023-04-03T05:11:59;3.87;;;1.37;;
19127;SDS011;9696;53.686;10.094;2023-04-03T05:14:35;3.30;;;1.43;;
19127;SDS011;9696;53.686;10.094;2023-04-03T05:17:07;8.27;;;2.30;;
19127;SDS011;9696;53.686;10.094;2023-04-03T05:19:40;6.97;;;2.33;;
19127;SDS011;9696;53.686;10.094;2023-04-03T05:22:10;6.43;;;1.70;;
19127;SDS011;9696;53.686;10.094;2023-04-03T05:24:39;5.53;;;1.80;;
19127;SDS011;9696;53.686;10.094;2023-04-03T05:27:10;4.03;;;2.00;;
19127;SDS011;9696;53.686;10.094;2023-04-03T05:29:43;13.53;;;2.23;;
19127;SDS011;9696;53.686;10.094;2023-04-03T05:32:18;7.60;;;1.73;;
19127;SDS011;9696;53.686;10.094;2023-04-03T05:34:52;6.13;;;1.70;;
19127;SDS011;9696;53.686;10.094;2023-04-03T05:37:21;5.77;;;1.80;;
19127;SDS011;9696;53.686;10.094;2023-04-03T05:39:52;8.63;;;1.60;;
19127;SDS011;9696;53.686;10.094;2023-04-03T05:42:23;4.13;;;1.37;;
19127;SDS011;9696;53.686;10.094;2023-04-03T05:44:52;5.77;;;1.80;;
19127;SDS011;9696;53.686;10.094;2023-04-03T05:47:22;7.23;;;1.80;;
19127;SDS011;9696;53.686;10.094;2023-04-03T05:49:51;9.43;;;2.50;;
19127;SDS011;9696;53.686;10.094;2023-04-03T05:52:21;4.67;;;2.53;;
19127;SDS011;9696;53.686;10.094;2023-04-03T05:54:56;6.57;;;2.80;;
19127;SDS011;9696;53.686;10.094;2023-04-03T05:57:29;6.77;;;2.43;;
19127;SDS011;9696;53.686;10.094;2023-04-03T05:59:58;7.23;;;2.20;;
19127;SDS011;9696;53.686;10.094;2023-04-03T06:02:29;6.63;;;2.17;;
19127;SDS011;9696;53.686;10.094;2023-04-03T06:05:00;5.37;;;1.73;;
19127;SDS011;9696;53.686;10.094;2023-04-03T06:07:29;5.87;;;2.40;;
19127;SDS011;9696;53.686;10.094;2023-04-03T06:09:58;4.00;;;2.40;;
19127;SDS011;9696;53.686;10.094;2023-04-03T06:12:29;3.00;;;2.00;;
19127;SDS011;9696;53.686;10.094;2023-04-03T06:14:59;4.57;;;2.27;;
19127;SDS011;9696;53.686;10.094;2023-04-03T06:17:28;9.10;;;2.43;;
19127;SDS011;9696;53.686;10.094;2023-04-03T06:19:58;2.30;;;1.50;;
19127;SDS011;9696;53.686;10.094;2023-04-03T06:22:27;5.73;;;2.03;;
19127;SDS011;9696;53.686;10.094;2023-04-03T06:24:57;7.43;;;1.97;;
19127;SDS011;9696;53.686;10.094;2023-04-03T06:27:26;4.27;;;1.50;;
19127;SDS011;9696;53.686;10.094;2023-04-03T06:29:57;3.37;;;1.70;;
19127;SDS011;9696;53.686;10.094;2023-04-03T06:32:26;4.97;;;1.83;;
19127;SDS011;9696;53.686;10.094;2023-04-03T06:34:55;5.60;;;1.67;;
19127;SDS011;9696;53.686;10.094;2023-04-03T06:37:25;6.87;;;1.50;;
19127;SDS011;9696;53.686;10.094;2023-04-03T06:39:55;6.57;;;1.90;;
19127;SDS011;9696;53.686;10.094;2023-04-03T06:42:24;3.63;;;1.63;;
19127;SDS011;9696;53.686;10.094;2023-04-03T06:45:01;6.27;;;1.57;;
19127;SDS011;9696;53.686;10.094;2023-04-03T06:47:31;7.13;;;1.57;;
19127;SDS011;9696;53.686;10.094;2023-04-03T06:50:00;13.63;;;2.17;;
19127;SDS011;9696;53.686;10.094;2023-04-03T06:52:30;6.27;;;1.77;;
19127;SDS011;9696;53.686;10.094;2023-04-03T06:54:59;6.20;;;1.63;;
19127;SDS011;9696;53.686;10.094;2023-04-03T06:57:29;6.07;;;1.03;;
19127;SDS011;9696;53.686;10.094;2023-04-03T06:59:58;5.80;;;1.43;;
19127;SDS011;9696;53.686;10.094;2023-04-03T07:02:28;4.17;;;1.67;;
19127;SDS011;9696;53.686;10.094;2023-04-03T07:04:58;3.47;;;1.27;;
19127;SDS011;9696;53.686;10.094;2023-04-03T07:07:27;8.10;;;1.30;;
19127;SDS011;9696;53.686;10.094;2023-04-03T07:09:56;6.20;;;1.50;;
19127;SDS011;9696;53.686;10.094;2023-04-03T07:12:25;1.87;;;1.23;;
19127;SDS011;9696;53.686;10.094;2023-04-03T07:14:54;5.73;;;1.30;;
19127;SDS011;9696;53.686;10.094;2023-04-03T07:17:23;4.67;;;1.33;;
19127;SDS011;9696;53.686;10.094;2023-04-03T07:19:55;8.03;;;1.87;;
19127;SDS011;9696;53.686;10.094;2023-04-03T07:22:24;3.27;;;1.37;;
19127;SDS011;9696;53.686;10.094;2023-04-03T07:24:53;2.80;;;1.10;;
19127;SDS011;9696;53.686;10.094;2023-04-03T07:27:22;3.87;;;1.23;;
19127;SDS011;9696;53.686;10.094;2023-04-03T07:29:51;3.03;;;1.10;;
19127;SDS011;9696;53.686;10.094;2023-04-03T07:32:22;4.10;;;0.97;;
19127;SDS011;9696;53.686;10.094;2023-04-03T07:34:51;3.57;;;0.80;;
19127;SDS011;9696;53.686;10.094;2023-04-03T07:37:22;4.73;;;1.20;;
19127;SDS011;9696;53.686;10.094;2023-04-03T07:39:51;3.30;;;1.10;;
19127;SDS011;9696;53.686;10.094;2023-04-03T07:42:21;2.63;;;1.20;;
19127;SDS011;9696;53.686;10.094;2023-04-03T07:44:50;2.22;;;0.88;;
19127;SDS011;9696;53.686;10.094;2023-04-03T07:47:19;4.80;;;1.10;;
19127;SDS011;9696;53.686;10.094;2023-04-03T07:49:49;1.35;;;0.75;;
19127;SDS011;9696;53.686;10.094;2023-04-03T07:52:18;3.63;;;1.10;;
19127;SDS011;9696;53.686;10.094;2023-04-03T07:54:48;5.45;;;1.23;;
19127;SDS011;9696;53.686;10.094;2023-04-03T07:57:17;5.57;;;0.70;;
19127;SDS011;9696;53.686;10.094;2023-04-03T07:59:47;7.93;;;1.10;;
19127;SDS011;9696;53.686;10.094;2023-04-03T08:02:16;5.25;;;1.00;;
19127;SDS011;9696;53.686;10.094;2023-04-03T08:04:45;2.20;;;0.80;;
19127;SDS011;9696;53.686;10.094;2023-04-03T08:07:14;3.55;;;1.13;;
19127;SDS011;9696;53.686;10.094;2023-04-03T08:09:43;3.53;;;0.77;;
19127;SDS011;9696;53.686;10.094;2023-04-03T08:12:14;5.47;;;0.80;;
19127;SDS011;9696;53.686;10.094;2023-04-03T08:14:43;4.72;;;0.80;;
19127;SDS011;9696;53.686;10.094;2023-04-03T08:17:12;4.30;;;0.90;;
19127;SDS011;9696;53.686;10.094;2023-04-03T08:19:41;5.15;;;0.65;;
19127;SDS011;9696;53.686;10.094;2023-04-03T08:22:10;1.55;;;0.60;;
19127;SDS011;9696;53.686;10.094;2023-04-03T08:24:39;4.32;;;0.95;;
19127;SDS011;9696;53.686;10.094;2023-04-03T08:27:26;2.90;;;0.70;;
19127;SDS011;9696;53.686;10.094;2023-04-03T08:29:56;1.67;;;0.77;;
19127;SDS011;9696;53.686;10.094;2023-04-03T08:32:25;2.05;;;0.68;;
19127;SDS011;9696;53.686;10.094;2023-04-03T08:34:54;2.75;;;0.60;;
19127;SDS011;9696;53.686;10.094;2023-04-03T08:37:24;3.42;;;0.77;;
19127;SDS011;9696;53.686;10.094;2023-04-03T08:39:53;5.03;;;0.90;;
19127;SDS011;9696;53.686;10.094;2023-04-03T08:42:28;2.83;;;0.95;;
19127;SDS011;9696;53.686;10.094;2023-04-03T08:45:09;3.08;;;0.70;;
19127;SDS011;9696;53.686;10.094;2023-04-03T08:47:42;4.50;;;0.82;;
19127;SDS011;9696;53.686;10.094;2023-04-03T08:50:23;1.92;;;0.90;;
19127;SDS011;9696;53.686;10.094;2023-04-03T08:52:57;2.25;;;0.60;;
19127;SDS011;9696;53.686;10.094;2023-04-03T08:55:28;4.18;;;0.75;;
19127;SDS011;9696;53.686;10.094;2023-04-03T08:58:01;2.78;;;0.40;;
19127;SDS011;9696;53.686;10.094;2023-04-03T09:00:34;1.98;;;0.70;;
19127;SDS011;9696;53.686;10.094;2023-04-03T09:03:11;2.25;;;0.93;;
19127;SDS011;9696;53.686;10.094;2023-04-03T09:05:44;5.25;;;0.70;;
19127;SDS011;9696;53.686;10.094;2023-04-03T09:08:23;2.72;;;0.73;;
19127;SDS011;9696;53.686;10.094;2023-04-03T09:10:58;2.47;;;0.65;;
19127;SDS011;9696;53.686;10.094;2023-04-03T09:13:39;2.78;;;0.68;;
19127;SDS011;9696;53.686;10.094;2023-04-03T09:16:17;4.53;;;1.02;;
19127;SDS011;9696;53.686;10.094;2023-04-03T09:18:56;1.00;;;0.60;;
19127;SDS011;9696;53.686;10.094;2023-04-03T09:21:35;1.65;;;0.80;;
19127;SDS011;9696;53.686;10.094;2023-04-03T09:24:09;3.45;;;0.75;;
19127;SDS011;9696;53.686;10.094;2023-04-03T09:26:41;1.63;;;0.57;;
19127;SDS011;9696;53.686;10.094;2023-04-03T09:29:16;3.92;;;0.88;;
19127;SDS011;9696;53.686;10.094;2023-04-03T09:31:48;1.60;;;0.50;;
19127;SDS011;9696;53.686;10.094;2023-04-03T09:34:20;2.17;;;0.70;;
19127;SDS011;9696;53.686;10.094;2023-04-03T09:36:53;2.08;;;0.68;;
19127;SDS011;9696;53.686;10.094;2023-04-03T09:39:25;1.25;;;0.40;;
19127;SDS011;9696;53.686;10.094;2023-04-03T09:41:57;1.00;;;0.40;;
19127;SDS011;9696;53.686;10.094;2023-04-03T09:44:30;3.15;;;0.70;;
19127;SDS011;9696;53.686;10.094;2023-04-03T09:47:18;1.42;;;0.57;;
19127;SDS011;9696;53.686;10.094;2023-04-03T09:49:54;2.85;;;0.80;;
19127;SDS011;9696;53.686;10.094;2023-04-03T09:52:46;0.93;;;0.30;;
19127;SDS011;9696;53.686;10.094;2023-04-03T09:55:19;1.95;;;0.60;;
19127;SDS011;9696;53.686;10.094;2023-04-03T09:57:54;2.65;;;0.77;;
19127;SDS011;9696;53.686;10.094;2023-04-03T10:00:27;1.35;;;0.40;;
19127;SDS011;9696;53.686;10.094;2023-04-03T10:03:00;1.98;;;0.65;;
19127;SDS011;9696;53.686;10.094;2023-04-03T10:05:32;0.77;;;0.40;;
19127;SDS011;9696;53.686;10.094;2023-04-03T10:08:06;0.77;;;0.30;;
19127;SDS011;9696;53.686;10.094;2023-04-03T10:10:38;2.75;;;0.77;;
19127;SDS011;9696;53.686;10.094;2023-04-03T10:13:10;1.92;;;0.40;;
19127;SDS011;9696;53.686;10.094;2023-04-03T10:15:50;2.03;;;0.57;;
19127;SDS011;9696;53.686;10.094;2023-04-03T10:18:31;3.80;;;0.70;;
19127;SDS011;9696;53.686;10.094;2023-04-03T10:21:10;2.25;;;0.60;;
19127;SDS011;9696;53.686;10.094;2023-04-03T10:23:54;3.72;;;0.70;;
19127;SDS011;9696;53.686;10.094;2023-04-03T10:26:35;0.82;;;0.40;;
19127;SDS011;9696;53.686;10.094;2023-04-03T10:29:16;1.70;;;0.50;;
19127;SDS011;9696;53.686;10.094;2023-04-03T10:31:59;0.63;;;0.52;;
19127;SDS011;9696;53.686;10.094;2023-04-03T10:34:40;0.95;;;0.50;;
19127;SDS011;9696;53.686;10.094;2023-04-03T10:37:24;3.00;;;0.63;;
19127;SDS011;9696;53.686;10.094;2023-04-03T10:40:01;3.03;;;0.80;;
19127;SDS011;9696;53.686;10.094;2023-04-03T10:42:41;1.95;;;0.80;;
19127;SDS011;9696;53.686;10.094;2023-04-03T10:45:17;2.35;;;0.65;;
19127;SDS011;9696;53.686;10.094;2023-04-03T10:47:56;2.58;;;0.70;;
19127;SDS011;9696;53.686;10.094;2023-04-03T10:50:35;5.53;;;0.52;;
19127;SDS011;9696;53.686;10.094;2023-04-03T10:53:13;2.72;;;0.50;;
19127;SDS011;9696;53.686;10.094;2023-04-03T10:55:51;1.60;;;0.40;;
19127;SDS011;9696;53.686;10.094;2023-04-03T10:58:27;3.47;;;0.65;;
19127;SDS011;9696;53.686;10.094;2023-04-03T11:01:03;2.05;;;0.60;;
19127;SDS011;9696;53.686;10.094;2023-04-03T11:03:38;1.27;;;0.50;;
19127;SDS011;9696;53.686;10.094;2023-04-03T11:06:11;3.47;;;0.80;;
19127;SDS011;9696;53.686;10.094;2023-04-03T11:08:44;1.33;;;0.47;;
19127;SDS011;9696;53.686;10.094;2023-04-03T11:11:19;2.90;;;0.90;;
19127;SDS011;9696;53.686;10.094;2023-04-03T11:13:55;1.98;;;0.45;;
19127;SDS011;9696;53.686;10.094;2023-04-03T11:16:30;1.00;;;0.55;;
19127;SDS011;9696;53.686;10.094;2023-04-03T11:19:18;1.20;;;0.70;;
19127;SDS011;9696;53.686;10.094;2023-04-03T11:21:51;1.80;;;0.55;;
19127;SDS011;9696;53.686;10.094;2023-04-03T11:24:26;3.25;;;0.55;;
19127;SDS011;9696;53.686;10.094;2023-04-03T11:26:59;2.17;;;0.60;;
19127;SDS011;9696;53.686;10.094;2023-04-03T11:29:31;1.38;;;0.60;;
19127;SDS011;9696;53.686;10.094;2023-04-03T11:32:09;4.60;;;0.80;;
19127;SDS011;9696;53.686;10.094;2023-04-03T11:34:52;2.08;;;0.70;;
19127;SDS011;9696;53.686;10.094;2023-04-03T11:37:28;3.58;;;0.80;;
19127;SDS011;9696;53.686;10.094;2023-04-03T11:40:02;4.82;;;0.90;;
19127;SDS011;9696;53.686;10.094;2023-04-03T11:42:36;1.27;;;0.50;;
19127;SDS011;9696;53.686;10.094;2023-04-03T11:45:29;1.20;;;0.50;;
19127;SDS011;9696;53.686;10.094;2023-04-03T11:48:05;1.13;;;0.40;;
19127;SDS011;9696;53.686;10.094;2023-04-03T11:50:56;2.55;;;0.52;;
19127;SDS011;9696;53.686;10.094;2023-04-03T11:53:35;1.60;;;0.60;;
19127;SDS011;9696;53.686;10.094;2023-04-03T12:01:52;3.58;;;0.60;;
19127;SDS011;9696;53.686;10.094;2023-04-03T12:04:23;3.33;;;0.70;;
19127;SDS011;9696;53.686;10.094;2023-04-03T12:09:57;2.67;;;0.60;;
19127;SDS011;9696;53.686;10.094;2023-04-03T12:12:32;2.50;;;0.63;;
19127;SDS011;9696;53.686;10.094;2023-04-03T12:15:17;2.90;;;0.70;;
19127;SDS011;9696;53.686;10.094;2023-04-03T12:17:50;3.72;;;0.60;;
19127;SDS011;9696;53.686;10.094;2023-04-03T12:23:32;1.90;;;0.70;;
19127;SDS011;9696;53.686;10.094;2023-04-03T12:26:18;2.10;;;0.77;;
19127;SDS011;9696;53.686;10.094;2023-04-03T12:28:58;1.77;;;0.63;;
19127;SDS011;9696;53.686;10.094;2023-04-03T12:31:34;1.00;;;0.47;;
19127;SDS011;9696;53.686;10.094;2023-04-03T12:34:17;2.08;;;0.73;;
19127;SDS011;9696;53.686;10.094;2023-04-03T12:37:07;5.45;;;0.70;;
19127;SDS011;9696;53.686;10.094;2023-04-03T12:39:56;2.22;;;0.73;;
19127;SDS011;9696;53.686;10.094;2023-04-03T12:42:41;1.88;;;0.57;;
19127;SDS011;9696;53.686;10.094;2023-04-03T12:45:37;4.93;;;0.63;;
19127;SDS011;9696;53.686;10.094;2023-04-03T12:48:15;3.55;;;0.68;;
19127;SDS011;9696;53.686;10.094;2023-04-03T12:50:46;2.75;;;0.77;;
19127;SDS011;9696;53.686;10.094;2023-04-03T12:53:18;1.73;;;0.70;;
19127;SDS011;9696;53.686;10.094;2023-04-03T12:55:54;2.33;;;0.50;;
19127;SDS011;9696;53.686;10.094;2023-04-03T12:58:24;3.55;;;0.55;;
19127;SDS011;9696;53.686;10.094;2023-04-03T13:00:59;2.13;;;0.60;;
19127;SDS011;9696;53.686;10.094;2023-04-03T13:03:29;2.83;;;0.70;;
19127;SDS011;9696;53.686;10.094;2023-04-03T13:05:59;2.22;;;0.60;;
19127;SDS011;9696;53.686;10.094;2023-04-03T13:08:30;2.35;;;0.60;;
19127;SDS011;9696;53.686;10.094;2023-04-03T13:11:02;6.80;;;0.80;;
19127;SDS011;9696;53.686;10.094;2023-04-03T13:13:37;2.38;;;0.90;;
19127;SDS011;9696;53.686;10.094;2023-04-03T13:16:09;1.10;;;0.47;;
19127;SDS011;9696;53.686;10.094;2023-04-03T13:18:41;0.57;;;0.40;;
19127;SDS011;9696;53.686;10.094;2023-04-03T13:21:13;1.80;;;0.50;;
19127;SDS011;9696;53.686;10.094;2023-04-03T13:23:47;3.80;;;0.50;;
19127;SDS011;9696;53.686;10.094;2023-04-03T13:26:34;3.08;;;0.68;;
19127;SDS011;9696;53.686;10.094;2023-04-03T13:29:03;1.27;;;0.50;;
19127;SDS011;9696;53.686;10.094;2023-04-03T13:31:38;1.90;;;0.70;;
19127;SDS011;9696;53.686;10.094;2023-04-03T13:34:10;1.67;;;0.70;;
19127;SDS011;9696;53.686;10.094;2023-04-03T13:36:42;2.05;;;0.70;;
19127;SDS011;9696;53.686;10.094;2023-04-03T13:39:20;2.45;;;0.50;;
19127;SDS011;9696;53.686;10.094;2023-04-03T13:41:53;2.63;;;0.80;;
19127;SDS011;9696;53.686;10.094;2023-04-03T13:44:26;2.22;;;0.70;;
19127;SDS011;9696;53.686;10.094;2023-04-03T13:47:01;2.53;;;1.00;;
19127;SDS011;9696;53.686;10.094;2023-04-03T13:49:45;2.00;;;0.57;;
19127;SDS011;9696;53.686;10.094;2023-04-03T13:52:27;4.57;;;0.63;;
19127;SDS011;9696;53.686;10.094;2023-04-03T13:55:00;4.28;;;0.70;;
19127;SDS011;9696;53.686;10.094;2023-04-03T13:57:51;2.70;;;0.60;;
19127;SDS011;9696;53.686;10.094;2023-04-03T14:00:33;4.38;;;0.80;;
19127;SDS011;9696;53.686;10.094;2023-04-03T14:03:12;6.53;;;0.80;;
19127;SDS011;9696;53.686;10.094;2023-04-03T14:05:41;1.02;;;0.47;;
19127;SDS011;9696;53.686;10.094;2023-04-03T14:08:12;3.95;;;0.68;;
19127;SDS011;9696;53.686;10.094;2023-04-03T14:10:41;1.70;;;0.60;;
19127;SDS011;9696;53.686;10.094;2023-04-03T14:13:13;1.60;;;0.57;;
19127;SDS011;9696;53.686;10.094;2023-04-03T14:15:43;2.05;;;0.68;;
19127;SDS011;9696;53.686;10.094;2023-04-03T14:18:16;1.50;;;0.60;;
19127;SDS011;9696;53.686;10.094;2023-04-03T14:20:47;2.05;;;0.55;;
19127;SDS011;9696;53.686;10.094;2023-04-03T14:23:17;1.65;;;0.65;;
19127;SDS011;9696;53.686;10.094;2023-04-03T14:25:46;6.90;;;0.90;;
19127;SDS011;9696;53.686;10.094;2023-04-03T14:28:18;4.28;;;0.82;;
19127;SDS011;9696;53.686;10.094;2023-04-03T14:30:49;1.77;;;0.80;;
19127;SDS011;9696;53.686;10.094;2023-04-03T14:33:20;2.08;;;0.60;;
19127;SDS011;9696;53.686;10.094;2023-04-03T14:35:52;6.88;;;1.23;;
19127;SDS011;9696;53.686;10.094;2023-04-03T14:38:24;1.98;;;0.70;;
19127;SDS011;9696;53.686;10.094;2023-04-03T14:40:56;2.67;;;0.77;;
19127;SDS011;9696;53.686;10.094;2023-04-03T14:43:44;4.30;;;0.70;;
19127;SDS011;9696;53.686;10.094;2023-04-03T14:46:14;1.65;;;0.70;;
19127;SDS011;9696;53.686;10.094;2023-04-03T14:48:45;1.85;;;0.68;;
19127;SDS011;9696;53.686;10.094;2023-04-03T14:51:15;1.67;;;0.63;;
19127;SDS011;9696;53.686;10.094;2023-04-03T14:53:44;2.00;;;0.80;;
19127;SDS011;9696;53.686;10.094;2023-04-03T14:56:17;1.63;;;0.67;;
19127;SDS011;9696;53.686;10.094;2023-04-03T14:58:51;1.33;;;0.87;;
19127;SDS011;9696;53.686;10.094;2023-04-03T15:01:24;1.70;;;0.63;;
19127;SDS011;9696;53.686;10.094;2023-04-03T15:03:54;4.97;;;0.70;;
19127;SDS011;9696;53.686;10.094;2023-04-03T15:06:23;2.13;;;0.73;;
19127;SDS011;9696;53.686;10.094;2023-04-03T15:08:53;2.22;;;0.50;;
19127;SDS011;9696;53.686;10.094;2023-04-03T15:11:23;1.73;;;0.67;;
19127;SDS011;9696;53.686;10.094;2023-04-03T15:13:54;2.08;;;0.82;;
19127;SDS011;9696;53.686;10.094;2023-04-03T15:16:23;2.28;;;0.93;;
19127;SDS011;9696;53.686;10.094;2023-04-03T15:18:53;1.50;;;0.65;;
19127;SDS011;9696;53.686;10.094;2023-04-03T15:21:22;2.13;;;0.60;;
19127;SDS011;9696;53.686;10.094;2023-04-03T15:23:51;1.52;;;0.88;;
19127;SDS011;9696;53.686;10.094;2023-04-03T15:26:20;4.70;;;1.27;;
19127;SDS011;9696;53.686;10.094;2023-04-03T15:28:49;4.60;;;1.20;;
19127;SDS011;9696;53.686;10.094;2023-04-03T15:31:20;3.60;;;0.90;;
19127;SDS011;9696;53.686;10.094;2023-04-03T15:33:49;4.38;;;1.13;;